Time;durP1;ratioP1;P1;durP2;ratioP2;P2;SDS_P1;SDS_P2;PMS_P1;PMS_P2;Temp;Humidity;BMP_temperature;BMP_pressure;BME280_temperature;BME280_humidity;BME280_pressure;Samples;Min_cycle;Max_cycle;Signal;HPM_P1;HPM_P2
2021/06/24 00:01:54;;;;;;;4.35;1.70;;;;;;;;;;6084802;29;20504;-72
2021/06/24 00:05:02;;;;;;;5.95;1.88;;;;;;;;;;6087884;29;20063;-71
2021/06/24 00:12:15;;;;;;;5.28;2.22;;;;;;;;;;6086858;29;20336;-72
2021/06/24 00:18:56;;;;;;;6.68;2.20;;;;;;;;;;6090337;29;21509;-72
2021/06/24 00:22:23;;;;;;;3.95;1.98;;;;;;;;;;6088239;29;20139;-72
2021/06/24 00:25:37;;;;;;;5.38;2.15;;;;;;;;;;6083199;29;20048;-75
2021/06/24 00:33:38;;;;;;;;;;;;;;;;;;;;;
2021/06/24 00:37:02;;;;;;;6.55;2.17;;;;;;;;;;6004016;29;20148;-75
2021/06/24 00:55:43;;;;;;;6.28;1.95;;;;;;;;;;5963012;29;20063;-76
2021/06/24 01:10:37;;;;;;;6.82;2.50;;;;;;;;;;6139254;23;20119;-66
2021/06/24 01:13:39;;;;;;;4.78;2.15;;;;;;;;;;6137773;28;20150;-66
2021/06/24 01:16:41;;;;;;;8.55;2.30;;;;;;;;;;6129393;28;20994;-66
2021/06/24 01:19:43;;;;;;;8.13;2.28;;;;;;;;;;6131614;28;20204;-66
2021/06/24 01:22:44;;;;;;;4.35;1.88;;;;;;;;;;6129491;28;20083;-66
2021/06/24 01:25:47;;;;;;;3.92;2.35;;;;;;;;;;6136166;28;20485;-66
2021/06/24 01:28:49;;;;;;;5.40;2.92;;;;;;;;;;6136618;28;20043;-66
2021/06/24 01:31:51;;;;;;;4.15;2.28;;;;;;;;;;6131381;28;20500;-66
2021/06/24 01:34:53;;;;;;;9.77;2.78;;;;;;;;;;6138836;28;20099;-66
2021/06/24 01:37:56;;;;;;;25.15;4.75;;;;;;;;;;6140873;28;20150;-66
2021/06/24 01:40:59;;;;;;;25.02;3.78;;;;;;;;;;6134787;28;20137;-66
2021/06/24 01:44:01;;;;;;;7.35;2.80;;;;;;;;;;6139111;28;20686;-66
2021/06/24 01:47:04;;;;;;;7.40;2.13;;;;;;;;;;6145026;28;20487;-67
2021/06/24 01:50:09;;;;;;;4.85;1.98;;;;;;;;;;6129308;28;20580;-66
2021/06/24 01:53:11;;;;;;;4.82;2.28;;;;;;;;;;6138590;28;20113;-66
2021/06/24 01:56:14;;;;;;;6.68;2.40;;;;;;;;;;6134718;28;20075;-67
2021/06/24 01:59:16;;;;;;;6.72;2.60;;;;;;;;;;6131474;28;20113;-66
2021/06/24 02:02:18;;;;;;;7.05;2.80;;;;;;;;;;6133924;28;20058;-67
2021/06/24 02:05:19;;;;;;;12.18;3.00;;;;;;;;;;6129032;28;20076;-66
2021/06/24 02:08:22;;;;;;;15.38;3.10;;;;;;;;;;6131801;28;20142;-67
2021/06/24 02:11:25;;;;;;;15.50;4.22;;;;;;;;;;6129648;28;20146;-67
2021/06/24 02:14:27;;;;;;;14.52;4.10;;;;;;;;;;6134631;28;20063;-67
2021/06/24 02:17:28;;;;;;;13.25;3.03;;;;;;;;;;6130836;28;20051;-67
2021/06/24 02:20:30;;;;;;;7.72;3.15;;;;;;;;;;6138162;28;20588;-67
2021/06/24 02:23:32;;;;;;;11.88;2.72;;;;;;;;;;6134137;28;20246;-67
2021/06/24 02:26:35;;;;;;;8.50;2.70;;;;;;;;;;6138829;28;20138;-67
2021/06/24 02:29:36;;;;;;;6.95;2.72;;;;;;;;;;6138925;28;20187;-67
2021/06/24 02:32:38;;;;;;;19.27;3.38;;;;;;;;;;6141548;28;20138;-67
2021/06/24 02:35:40;;;;;;;7.00;2.60;;;;;;;;;;6142348;28;20055;-67
2021/06/24 02:38:42;;;;;;;6.07;2.33;;;;;;;;;;6139099;28;20071;-67
2021/06/24 02:41:44;;;;;;;7.63;2.60;;;;;;;;;;6142643;28;20132;-67
2021/06/24 02:44:46;;;;;;;5.50;2.60;;;;;;;;;;6135180;28;20200;-67
2021/06/24 02:47:48;;;;;;;9.95;3.50;;;;;;;;;;6145160;28;20129;-67
2021/06/24 02:50:49;;;;;;;6.85;2.50;;;;;;;;;;6140761;28;20137;-66
2021/06/24 02:53:51;;;;;;;6.13;2.78;;;;;;;;;;6143799;28;20091;-67
2021/06/24 02:56:58;;;;;;;7.03;2.60;;;;;;;;;;6139009;28;20598;-66
2021/06/24 02:59:59;;;;;;;6.90;2.90;;;;;;;;;;6141653;28;20130;-67
2021/06/24 03:03:01;;;;;;;11.45;3.25;;;;;;;;;;6132575;28;20512;-67
2021/06/24 03:06:02;;;;;;;8.32;2.83;;;;;;;;;;6134237;28;20472;-67
2021/06/24 03:09:04;;;;;;;5.00;2.60;;;;;;;;;;6129485;28;20226;-68
2021/06/24 03:12:09;;;;;;;4.70;2.85;;;;;;;;;;6131245;28;20055;-67
2021/06/24 03:15:12;;;;;;;5.00;2.80;;;;;;;;;;6134536;28;20131;-67
2021/06/24 03:18:13;;;;;;;6.10;2.78;;;;;;;;;;6130009;28;20089;-67
2021/06/24 03:21:15;;;;;;;8.40;2.80;;;;;;;;;;6129006;28;20110;-67
2021/06/24 03:24:17;;;;;;;5.70;2.78;;;;;;;;;;6129642;28;20051;-66
2021/06/24 03:27:20;;;;;;;6.72;2.90;;;;;;;;;;6133944;28;20052;-67
2021/06/24 03:30:23;;;;;;;6.38;2.90;;;;;;;;;;6129816;28;20187;-68
2021/06/24 03:33:25;;;;;;;8.57;3.13;;;;;;;;;;6128101;28;20152;-67
2021/06/24 03:36:27;;;;;;;4.13;2.67;;;;;;;;;;6131201;28;20090;-68
2021/06/24 03:39:28;;;;;;;9.90;3.10;;;;;;;;;;6133086;28;20482;-67
2021/06/24 03:42:31;;;;;;;6.28;2.72;;;;;;;;;;6130465;28;20194;-68
2021/06/24 03:45:33;;;;;;;6.13;2.80;;;;;;;;;;6132902;28;20130;-67
2021/06/24 03:48:35;;;;;;;6.70;3.08;;;;;;;;;;6139824;28;20128;-67
2021/06/24 03:51:36;;;;;;;8.05;3.10;;;;;;;;;;6139063;28;20039;-67
2021/06/24 03:54:38;;;;;;;7.30;3.13;;;;;;;;;;6141260;28;20130;-67
2021/06/24 03:57:41;;;;;;;5.28;2.90;;;;;;;;;;6129748;28;20043;-68
2021/06/24 04:00:44;;;;;;;4.40;2.45;;;;;;;;;;6128312;28;20047;-67
2021/06/24 04:03:46;;;;;;;5.60;2.90;;;;;;;;;;6127617;28;20136;-67
2021/06/24 04:06:47;;;;;;;6.38;3.20;;;;;;;;;;6129073;28;20122;-68
2021/06/24 04:09:49;;;;;;;4.95;2.70;;;;;;;;;;6126012;28;20142;-67
2021/06/24 04:12:52;;;;;;;6.43;3.05;;;;;;;;;;6126833;28;20592;-67
2021/06/24 04:15:53;;;;;;;6.93;3.00;;;;;;;;;;6128032;28;20078;-67
2021/06/24 04:18:55;;;;;;;8.63;3.40;;;;;;;;;;6127504;28;20518;-67
2021/06/24 04:21:56;;;;;;;10.15;3.20;;;;;;;;;;6127487;28;20111;-67
2021/06/24 04:24:58;;;;;;;7.45;2.90;;;;;;;;;;6128514;28;20106;-67
2021/06/24 04:28:01;;;;;;;8.13;3.00;;;;;;;;;;6128172;28;20711;-67
2021/06/24 04:31:03;;;;;;;5.15;3.13;;;;;;;;;;6130705;29;20059;-67
2021/06/24 04:34:06;;;;;;;10.80;3.42;;;;;;;;;;6128268;28;20083;-67
2021/06/24 04:37:07;;;;;;;6.53;3.28;;;;;;;;;;6128684;28;20052;-68
2021/06/24 04:40:11;;;;;;;7.85;3.50;;;;;;;;;;6128707;28;21087;-67
2021/06/24 04:43:13;;;;;;;;;;;;;;;;;;6131728;28;20130;-67
2021/06/24 04:46:15;;;;;;;11.43;3.40;;;;;;;;;;6133512;28;20543;-69
2021/06/24 04:49:17;;;;;;;6.68;3.28;;;;;;;;;;6128238;28;20173;-67
2021/06/24 04:52:19;;;;;;;5.40;3.17;;;;;;;;;;6127544;28;20059;-67
2021/06/24 04:55:21;;;;;;;7.72;3.80;;;;;;;;;;6127139;28;20730;-67
2021/06/24 04:58:24;;;;;;;7.93;4.10;;;;;;;;;;6127907;28;20047;-67
2021/06/24 05:01:25;;;;;;;8.25;4.43;;;;;;;;;;6128093;28;20183;-68
2021/06/24 05:04:27;;;;;;;7.93;4.13;;;;;;;;;;6127514;28;20149;-67
2021/06/24 05:07:29;;;;;;;7.05;4.40;;;;;;;;;;6129019;28;20105;-67
2021/06/24 05:10:30;;;;;;;9.20;5.38;;;;;;;;;;6125492;28;20086;-67
2021/06/24 05:13:34;;;;;;;8.52;5.07;;;;;;;;;;6130300;28;20142;-67
2021/06/24 05:16:36;;;;;;;6.55;5.15;;;;;;;;;;6121079;28;20152;-67
2021/06/24 05:19:37;;;;;;;8.23;4.95;;;;;;;;;;6142771;28;20933;-67
2021/06/24 05:22:39;;;;;;;8.38;6.00;;;;;;;;;;6136163;28;20093;-69
2021/06/24 05:25:40;;;;;;;7.97;5.38;;;;;;;;;;6134248;28;20150;-69
2021/06/24 05:28:43;;;;;;;8.65;5.80;;;;;;;;;;6130637;28;20130;-67
2021/06/24 05:31:45;;;;;;;7.15;5.22;;;;;;;;;;6134401;28;20125;-67
2021/06/24 05:34:47;;;;;;;8.32;5.30;;;;;;;;;;6142085;28;20051;-68
2021/06/24 05:37:48;;;;;;;6.88;5.30;;;;;;;;;;6134765;28;20127;-69
2021/06/24 05:40:51;;;;;;;8.38;5.35;;;;;;;;;;6127713;28;20115;-68
2021/06/24 05:43:54;;;;;;;7.72;5.40;;;;;;;;;;6129947;28;20534;-68
2021/06/24 05:46:55;;;;;;;8.77;5.35;;;;;;;;;;6127057;28;20130;-68
2021/06/24 05:49:57;;;;;;;10.02;5.70;;;;;;;;;;6127562;28;20043;-69
2021/06/24 05:56:37;;;;;;;8.73;5.30;;;;;;;;;;6430370;23;20373;-72
2021/06/24 05:59:41;;;;;;;8.90;6.40;;;;;;;;;;6170348;28;20086;-75
2021/06/24 06:10:26;;;;;;;10.68;5.18;;;;;;;;;;6169874;28;20483;-73
2021/06/24 06:13:28;;;;;;;6.40;4.20;;;;;;;;;;6168958;28;20055;-72
2021/06/24 06:16:32;;;;;;;7.55;4.50;;;;;;;;;;6166957;28;20051;-74
2021/06/24 06:19:33;;;;;;;8.52;4.28;;;;;;;;;;6168582;28;20079;-75
2021/06/24 06:22:35;;;;;;;6.07;3.75;;;;;;;;;;6168116;28;20162;-74
2021/06/24 06:34:12;;;;;;;11.05;4.22;;;;;;;;;;6160463;28;20111;-83
2021/06/24 06:38:01;;;;;;;7.47;4.10;;;;;;;;;;6120274;28;20168;-81
2021/06/24 06:52:31;;;;;;;11.23;4.47;;;;;;;;;;6150845;28;20084;-80
2021/06/24 06:55:33;;;;;;;9.10;5.10;;;;;;;;;;6236655;23;20044;-82
2021/06/24 07:02:15;;;;;;;6.35;4.10;;;;;;;;;;6123308;29;20183;-72
2021/06/24 07:05:20;;;;;;;7.45;3.35;;;;;;;;;;6113635;29;20115;-74
2021/06/24 07:08:27;;;;;;;10.57;3.83;;;;;;;;;;6113566;29;20067;-73
2021/06/24 07:11:29;;;;;;;5.38;3.53;;;;;;;;;;6120801;28;20052;-74
2021/06/24 07:14:31;;;;;;;10.50;3.55;;;;;;;;;;6102710;29;20151;-75
2021/06/24 07:17:32;;;;;;;8.57;4.57;;;;;;;;;;6104585;29;20064;-74
2021/06/24 07:20:34;;;;;;;7.10;4.32;;;;;;;;;;6111860;29;20385;-79
2021/06/24 07:23:39;;;;;;;7.60;4.10;;;;;;;;;;6110988;29;20052;-75
2021/06/24 07:26:41;;;;;;;8.55;3.53;;;;;;;;;;6113215;29;20055;-74
2021/06/24 07:29:44;;;;;;;9.95;4.47;;;;;;;;;;6111978;29;20620;-78
2021/06/24 07:32:46;;;;;;;12.55;3.75;;;;;;;;;;6110961;29;20139;-73
2021/06/24 07:35:48;;;;;;;12.43;3.90;;;;;;;;;;6112591;29;20143;-75
2021/06/24 07:38:51;;;;;;;9.57;4.07;;;;;;;;;;6112757;28;20092;-73
2021/06/24 07:41:53;;;;;;;6.97;4.18;;;;;;;;;;6115608;29;20060;-77
2021/06/24 07:44:55;;;;;;;9.82;4.20;;;;;;;;;;6112066;29;20059;-74
2021/06/24 07:47:57;;;;;;;9.05;4.13;;;;;;;;;;6107340;29;20060;-76
2021/06/24 07:50:59;;;;;;;9.45;4.57;;;;;;;;;;6115537;29;20044;-76
2021/06/24 07:54:10;;;;;;;7.37;3.97;;;;;;;;;;6100096;29;20060;-74
2021/06/24 07:57:11;;;;;;;7.43;3.97;;;;;;;;;;6093493;29;20045;-78
2021/06/24 08:00:14;;;;;;;5.73;3.63;;;;;;;;;;6095262;29;20159;-74
2021/06/24 08:03:16;;;;;;;6.65;3.88;;;;;;;;;;6104455;29;20044;-75
2021/06/24 08:06:18;;;;;;;11.48;4.82;;;;;;;;;;6105344;29;20052;-76
2021/06/24 08:09:22;;;;;;;8.02;3.85;;;;;;;;;;6099764;29;20166;-74
2021/06/24 08:12:32;;;;;;;5.60;3.53;;;;;;;;;;6108906;29;20447;-74
2021/06/24 08:15:34;;;;;;;5.72;3.50;;;;;;;;;;6098586;29;20044;-75
2021/06/24 08:18:39;;;;;;;4.05;3.28;;;;;;;;;;6107335;29;20115;-74
2021/06/24 08:21:41;;;;;;;9.63;4.78;;;;;;;;;;6104457;29;20044;-74
2021/06/24 08:24:46;;;;;;;7.05;4.35;;;;;;;;;;6100067;29;20107;-74
2021/06/24 08:27:57;;;;;;;7.40;4.30;;;;;;;;;;6102011;29;20052;-75
2021/06/24 08:31:03;;;;;;;8.63;3.97;;;;;;;;;;6099965;29;20044;-74
2021/06/24 08:34:11;;;;;;;6.00;3.85;;;;;;;;;;6101171;29;20052;-74
2021/06/24 08:37:47;;;;;;;8.63;4.37;;;;;;;;;;6106925;29;20059;-77
2021/06/24 08:47:51;;;;;;;7.85;3.80;;;;;;;;;;6101292;29;20041;-74
2021/06/24 08:50:58;;;;;;;3.65;2.90;;;;;;;;;;6096391;29;20135;-74
2021/06/24 09:29:16;;;;;;;5.78;1.70;;;;;;;;;;7319016;23;20090;-77
2021/06/24 09:32:30;;;;;;;3.17;1.70;;;;;;;;;;6117651;29;20067;-76
2021/06/24 09:35:32;;;;;;;2.17;1.40;;;;;;;;;;6108149;29;20063;-74
2021/06/24 09:42:46;;;;;;;4.47;2.00;;;;;;;;;;6131297;29;20059;-79
2021/06/24 09:49:38;;;;;;;6.07;2.28;;;;;;;;;;6109767;29;20185;-80
2021/06/24 09:52:41;;;;;;;6.22;2.20;;;;;;;;;;6106588;28;20064;-83
2021/06/24 09:55:43;;;;;;;4.88;1.80;;;;;;;;;;6112447;28;20079;-77
2021/06/24 09:58:52;;;;;;;3.63;1.50;;;;;;;;;;6122725;29;20055;-82
2021/06/24 10:01:56;;;;;;;3.50;1.70;;;;;;;;;;6115555;29;20048;-84
2021/06/24 10:05:00;;;;;;;5.65;1.33;;;;;;;;;;6122265;28;20044;-83
2021/06/24 10:08:03;;;;;;;3.38;1.85;;;;;;;;;;6104100;29;20456;-83
2021/06/24 10:11:16;;;;;;;2.67;1.52;;;;;;;;;;6114218;29;20072;-82
2021/06/24 10:14:19;;;;;;;4.30;1.60;;;;;;;;;;6100872;29;20063;-85
2021/06/24 10:17:50;;;;;;;4.68;1.60;;;;;;;;;;6124011;29;20056;-82
2021/06/24 10:21:14;;;;;;;3.08;1.65;;;;;;;;;;6116691;28;20127;-84
2021/06/24 10:27:54;;;;;;;4.80;1.80;;;;;;;;;;6103053;29;20048;-83
2021/06/24 10:31:19;;;;;;;2.95;1.30;;;;;;;;;;6130199;29;20047;-84
2021/06/24 10:34:45;;;;;;;2.00;1.35;;;;;;;;;;6118553;29;20048;-83
2021/06/24 10:37:50;;;;;;;4.32;1.55;;;;;;;;;;6123625;28;20044;-80
2021/06/24 10:40:57;;;;;;;2.92;1.50;;;;;;;;;;6104941;29;20183;-78
2021/06/24 10:43:59;;;;;;;2.00;1.20;;;;;;;;;;6111285;29;20047;-76
2021/06/24 10:47:04;;;;;;;2.95;1.52;;;;;;;;;;6110953;28;20052;-76
2021/06/24 10:50:41;;;;;;;6.28;1.73;;;;;;;;;;6110185;29;20135;-83
2021/06/24 10:53:48;;;;;;;3.70;1.50;;;;;;;;;;6111531;28;20056;-76
2021/06/24 10:56:49;;;;;;;1.58;1.40;;;;;;;;;;6106440;29;20055;-75
2021/06/24 10:59:52;;;;;;;5.13;1.70;;;;;;;;;;6107402;28;20513;-77
2021/06/24 11:02:54;;;;;;;4.03;1.35;;;;;;;;;;6105796;28;20100;-76
2021/06/24 11:06:10;;;;;;;2.72;1.30;;;;;;;;;;6107268;29;20055;-76
2021/06/24 11:09:13;;;;;;;3.80;1.65;;;;;;;;;;6108161;29;20067;-75
2021/06/24 11:12:53;;;;;;;3.47;1.40;;;;;;;;;;6108344;29;20048;-76
2021/06/24 11:15:55;;;;;;;2.78;1.70;;;;;;;;;;6107875;28;20048;-77
2021/06/24 11:19:01;;;;;;;2.90;1.25;;;;;;;;;;6109023;28;20556;-79
2021/06/24 11:22:04;;;;;;;5.05;1.63;;;;;;;;;;6113794;29;20052;-78
2021/06/24 11:25:10;;;;;;;3.70;1.40;;;;;;;;;;6116834;28;20071;-78
2021/06/24 11:28:41;;;;;;;5.47;1.50;;;;;;;;;;6117933;28;20043;-82
2021/06/24 11:31:47;;;;;;;5.28;1.25;;;;;;;;;;6114839;28;20067;-78
2021/06/24 11:34:56;;;;;;;3.42;1.40;;;;;;;;;;6109004;28;20055;-78
2021/06/24 11:38:03;;;;;;;3.85;1.60;;;;;;;;;;6112181;28;20192;-77
2021/06/24 11:41:08;;;;;;;2.53;1.50;;;;;;;;;;6108381;28;20051;-75
2021/06/24 11:44:10;;;;;;;2.47;1.55;;;;;;;;;;6116685;29;20052;-76
2021/06/24 11:47:13;;;;;;;4.45;1.67;;;;;;;;;;6113182;29;20400;-75
2021/06/24 12:00:35;;;;;;;6.43;1.33;;;;;;;;;;6105623;29;20044;-75
2021/06/24 12:03:39;;;;;;;6.07;1.80;;;;;;;;;;6106658;29;20115;-77
2021/06/24 12:06:48;;;;;;;2.95;1.77;;;;;;;;;;6103622;29;20527;-76
2021/06/24 12:09:53;;;;;;;6.00;1.65;;;;;;;;;;6104982;29;20062;-76
2021/06/24 12:12:55;;;;;;;1.98;1.20;;;;;;;;;;6097468;29;20055;-76
2021/06/24 12:15:57;;;;;;;2.55;1.30;;;;;;;;;;6099593;29;20049;-74
2021/06/24 12:18:58;;;;;;;1.98;1.40;;;;;;;;;;6100864;29;20064;-75
2021/06/24 12:22:00;;;;;;;5.10;1.50;;;;;;;;;;6098997;29;20048;-74
2021/06/24 12:25:06;;;;;;;2.38;1.55;;;;;;;;;;6101904;29;20084;-74
2021/06/24 12:28:09;;;;;;;5.53;1.83;;;;;;;;;;6101176;29;20048;-74
2021/06/24 12:31:18;;;;;;;2.83;1.38;;;;;;;;;;6106826;29;20510;-75
2021/06/24 12:34:22;;;;;;;3.13;1.38;;;;;;;;;;6111666;29;20088;-74
2021/06/24 12:37:40;;;;;;;3.00;1.50;;;;;;;;;;6112395;29;20052;-74
2021/06/24 12:40:45;;;;;;;5.63;1.70;;;;;;;;;;6100896;29;20475;-74
2021/06/24 12:43:48;;;;;;;2.60;1.30;;;;;;;;;;6114294;29;20040;-74
2021/06/24 12:46:50;;;;;;;3.92;1.85;;;;;;;;;;6119403;29;20060;-80
2021/06/24 12:49:51;;;;;;;2.28;1.33;;;;;;;;;;6116005;29;20048;-77
2021/06/24 12:52:55;;;;;;;2.83;1.48;;;;;;;;;;6110718;29;20156;-74
2021/06/24 12:55:59;;;;;;;4.95;1.45;;;;;;;;;;6100723;29;20112;-73
2021/06/24 12:59:07;;;;;;;3.85;1.60;;;;;;;;;;6095517;29;20819;-73
2021/06/24 13:02:09;;;;;;;2.88;1.40;;;;;;;;;;6104234;29;20049;-73
2021/06/24 13:05:23;;;;;;;3.65;1.67;;;;;;;;;;6106380;29;20068;-74
2021/06/24 13:08:25;;;;;;;4.72;1.48;;;;;;;;;;6104571;29;20052;-74
2021/06/24 13:11:30;;;;;;;2.13;1.20;;;;;;;;;;6115356;29;20074;-74
2021/06/24 13:14:33;;;;;;;2.78;1.10;;;;;;;;;;6105076;29;20096;-72
2021/06/24 13:17:39;;;;;;;4.45;1.50;;;;;;;;;;6080411;29;20093;-74
2021/06/24 13:20:40;;;;;;;2.03;1.52;;;;;;;;;;6109574;29;20052;-73
2021/06/24 13:23:42;;;;;;;4.40;1.15;;;;;;;;;;6110365;29;20137;-73
2021/06/24 13:26:45;;;;;;;2.53;1.40;;;;;;;;;;6096323;29;20139;-73
2021/06/24 13:29:55;;;;;;;5.45;1.75;;;;;;;;;;6108986;29;20092;-73
2021/06/24 13:32:57;;;;;;;3.55;1.52;;;;;;;;;;6099809;29;20084;-73
2021/06/24 13:35:58;;;;;;;8.00;1.73;;;;;;;;;;6102913;29;20071;-73
2021/06/24 13:39:04;;;;;;;5.43;1.80;;;;;;;;;;6105762;29;20048;-72
2021/06/24 13:42:07;;;;;;;2.85;1.65;;;;;;;;;;6111286;29;20134;-74
2021/06/24 13:45:10;;;;;;;2.58;1.33;;;;;;;;;;6107641;29;20071;-73
2021/06/24 13:48:12;;;;;;;3.67;1.45;;;;;;;;;;6107561;29;20064;-72
2021/06/24 13:51:14;;;;;;;2.80;1.40;;;;;;;;;;6115166;29;20345;-73
2021/06/24 13:54:18;;;;;;;4.47;1.40;;;;;;;;;;6108360;29;20048;-73
2021/06/24 13:57:21;;;;;;;6.38;2.10;;;;;;;;;;6097253;29;20169;-73
2021/06/24 14:00:23;;;;;;;3.47;1.40;;;;;;;;;;6108816;29;20080;-76
2021/06/24 14:03:25;;;;;;;2.78;1.48;;;;;;;;;;6112381;29;20130;-75
2021/06/24 14:06:31;;;;;;;7.35;1.52;;;;;;;;;;6113455;29;20056;-72
2021/06/24 14:09:33;;;;;;;2.55;1.65;;;;;;;;;;6100766;29;20049;-74
2021/06/24 14:12:37;;;;;;;3.00;1.55;;;;;;;;;;6120244;29;20056;-72
2021/06/24 14:15:39;;;;;;;4.15;1.80;;;;;;;;;;6106408;29;20193;-73
2021/06/24 14:18:41;;;;;;;2.42;1.48;;;;;;;;;;6104362;29;20056;-73
2021/06/24 14:21:43;;;;;;;3.38;1.73;;;;;;;;;;6101943;29;20109;-73
2021/06/24 14:24:45;;;;;;;3.42;1.65;;;;;;;;;;6111693;29;20070;-73
2021/06/24 14:27:48;;;;;;;2.07;1.50;;;;;;;;;;6103860;29;20058;-72
2021/06/24 14:30:49;;;;;;;2.83;1.48;;;;;;;;;;6116888;29;20120;-73
2021/06/24 14:33:52;;;;;;;2.83;1.45;;;;;;;;;;6106802;29;20060;-73
2021/06/24 14:36:54;;;;;;;2.83;1.40;;;;;;;;;;6108867;29;20053;-73
2021/06/24 14:39:56;;;;;;;2.13;1.50;;;;;;;;;;6107302;29;20546;-73
2021/06/24 14:42:59;;;;;;;2.53;1.70;;;;;;;;;;6110916;29;20048;-74
2021/06/24 14:46:03;;;;;;;2.53;1.50;;;;;;;;;;6097076;29;20134;-73
2021/06/24 14:49:05;;;;;;;2.42;1.70;;;;;;;;;;6103650;29;20131;-73
2021/06/24 14:52:07;;;;;;;1.90;1.40;;;;;;;;;;6100031;29;20067;-73
2021/06/24 14:55:10;;;;;;;3.22;1.67;;;;;;;;;;6103301;29;20062;-73
2021/06/24 14:58:13;;;;;;;2.30;1.50;;;;;;;;;;6096658;29;20059;-73
2021/06/24 15:01:15;;;;;;;3.22;1.60;;;;;;;;;;6108177;29;20044;-72
2021/06/24 15:04:17;;;;;;;2.17;1.53;;;;;;;;;;6103593;29;20056;-72
2021/06/24 15:07:22;;;;;;;3.73;1.80;;;;;;;;;;6111222;29;20459;-73
2021/06/24 15:10:23;;;;;;;2.35;1.40;;;;;;;;;;6114616;29;20059;-73
2021/06/24 15:13:27;;;;;;;4.75;1.40;;;;;;;;;;6112535;29;20059;-73
2021/06/24 15:16:28;;;;;;;6.15;1.63;;;;;;;;;;6104415;29;20052;-72
2021/06/24 15:19:30;;;;;;;4.03;1.80;;;;;;;;;;6104022;29;20107;-73
2021/06/24 15:22:35;;;;;;;4.70;1.77;;;;;;;;;;6104389;29;20126;-73
2021/06/24 15:25:38;;;;;;;3.65;1.50;;;;;;;;;;6102398;29;20044;-73
2021/06/24 15:28:41;;;;;;;3.70;1.55;;;;;;;;;;6104676;29;20075;-73
2021/06/24 15:31:43;;;;;;;3.03;1.58;;;;;;;;;;6102915;29;20123;-72
2021/06/24 15:34:45;;;;;;;3.25;1.60;;;;;;;;;;6100896;29;20061;-71
2021/06/24 15:37:48;;;;;;;6.35;1.58;;;;;;;;;;6102983;29;20174;-71
2021/06/24 15:40:50;;;;;;;5.15;1.48;;;;;;;;;;6105861;29;20055;-71
2021/06/24 15:43:53;;;;;;;4.27;1.50;;;;;;;;;;6101927;29;20139;-75
2021/06/24 15:46:54;;;;;;;2.63;1.30;;;;;;;;;;6100227;29;20453;-73
2021/06/24 15:49:56;;;;;;;2.15;0.80;;;;;;;;;;6100239;29;20584;-71
2021/06/24 15:52:58;;;;;;;2.47;0.95;;;;;;;;;;6098089;29;20103;-72
2021/06/24 15:56:00;;;;;;;3.85;1.17;;;;;;;;;;6094265;29;20076;-72
2021/06/24 15:59:03;;;;;;;0.98;0.70;;;;;;;;;;6099693;29;20252;-71
2021/06/24 16:02:05;;;;;;;5.78;1.00;;;;;;;;;;6098546;29;20172;-72
2021/06/24 16:05:08;;;;;;;2.83;0.70;;;;;;;;;;6097506;29;20084;-71
2021/06/24 16:08:10;;;;;;;5.40;0.90;;;;;;;;;;6110664;29;20071;-72
2021/06/24 16:11:12;;;;;;;4.45;1.00;;;;;;;;;;6106877;29;20544;-72
2021/06/24 16:14:15;;;;;;;2.85;0.52;;;;;;;;;;6112682;29;20138;-71
2021/06/24 16:17:17;;;;;;;2.78;0.80;;;;;;;;;;6102171;29;20535;-72
2021/06/24 16:20:20;;;;;;;4.93;0.90;;;;;;;;;;6096587;29;20048;-72
2021/06/24 16:23:22;;;;;;;6.90;1.13;;;;;;;;;;6098321;29;20048;-72
2021/06/24 16:26:23;;;;;;;3.78;0.75;;;;;;;;;;6107907;29;20115;-72
2021/06/24 16:29:27;;;;;;;4.35;0.90;;;;;;;;;;6098838;29;20421;-73
2021/06/24 16:32:28;;;;;;;4.40;1.00;;;;;;;;;;6105575;29;20052;-72
2021/06/24 16:35:31;;;;;;;8.55;0.98;;;;;;;;;;6108332;29;20048;-70
2021/06/24 16:38:33;;;;;;;2.97;0.88;;;;;;;;;;6100039;29;20170;-72
2021/06/24 16:41:36;;;;;;;4.85;1.00;;;;;;;;;;6090859;29;20048;-73
2021/06/24 16:44:39;;;;;;;5.50;0.93;;;;;;;;;;6105314;29;20585;-72
2021/06/24 16:47:40;;;;;;;;;;;;;;;;;;6101884;29;20056;-71
2021/06/24 16:50:42;;;;;;;4.47;1.00;;;;;;;;;;6102292;29;20341;-72
2021/06/24 16:53:44;;;;;;;5.75;1.02;;;;;;;;;;6109241;29;20080;-71
2021/06/24 16:56:45;;;;;;;2.28;0.85;;;;;;;;;;6109817;29;20061;-73
2021/06/24 16:59:48;;;;;;;7.95;1.05;;;;;;;;;;6105411;29;20100;-72
2021/06/24 17:02:50;;;;;;;2.05;0.77;;;;;;;;;;6110062;29;20072;-72
2021/06/24 17:05:52;;;;;;;4.85;1.05;;;;;;;;;;6108650;29;20051;-72
2021/06/24 17:08:54;;;;;;;7.80;1.58;;;;;;;;;;6121804;29;20167;-72
2021/06/24 17:11:55;;;;;;;4.50;1.10;;;;;;;;;;6114417;29;20056;-72
2021/06/24 17:14:59;;;;;;;5.40;1.52;;;;;;;;;;6106809;29;20137;-72
2021/06/24 17:18:00;;;;;;;3.50;1.40;;;;;;;;;;6107938;29;20060;-72
2021/06/24 17:21:03;;;;;;;3.47;1.30;;;;;;;;;;6117630;29;20048;-72
2021/06/24 17:24:06;;;;;;;2.35;1.60;;;;;;;;;;6113762;29;20052;-72
2021/06/24 17:27:08;;;;;;;6.45;1.42;;;;;;;;;;6119813;29;20048;-71
2021/06/24 17:30:15;;;;;;;5.47;1.40;;;;;;;;;;6113496;29;20071;-72
2021/06/24 17:33:17;;;;;;;2.90;1.50;;;;;;;;;;6112249;29;20059;-72
2021/06/24 17:36:20;;;;;;;3.13;1.67;;;;;;;;;;6121172;29;20052;-72
2021/06/24 17:39:22;;;;;;;;;;;;;;;;;;6097263;29;21754;-72
2021/06/24 17:42:23;;;;;;;6.13;1.63;;;;;;;;;;6111203;29;19934;-72
2021/06/24 17:45:27;;;;;;;5.07;1.40;;;;;;;;;;6118813;29;20047;-72
2021/06/24 17:48:28;;;;;;;5.05;1.58;;;;;;;;;;6117956;29;20077;-72
2021/06/24 17:51:30;;;;;;;8.13;1.55;;;;;;;;;;6119277;29;20227;-72
2021/06/24 17:54:33;;;;;;;6.32;1.92;;;;;;;;;;6109901;29;20389;-72
2021/06/24 17:57:35;;;;;;;3.45;1.48;;;;;;;;;;6104535;29;20045;-72
2021/06/24 18:00:42;;;;;;;4.30;2.15;;;;;;;;;;6116866;29;20063;-75
2021/06/24 18:03:44;;;;;;;3.88;1.30;;;;;;;;;;6118717;29;20047;-75
2021/06/24 18:06:46;;;;;;;1.90;1.20;;;;;;;;;;6123249;29;20407;-78
2021/06/24 18:09:48;;;;;;;4.40;1.63;;;;;;;;;;6119835;29;20052;-75
2021/06/24 18:12:50;;;;;;;7.10;1.45;;;;;;;;;;6124103;29;20380;-72
2021/06/24 18:15:53;;;;;;;4.10;1.35;;;;;;;;;;6113933;29;20048;-73
2021/06/24 18:18:54;;;;;;;7.15;1.48;;;;;;;;;;6115374;29;20048;-71
2021/06/24 18:21:56;;;;;;;3.75;1.40;;;;;;;;;;6121625;29;20054;-72
2021/06/24 18:24:58;;;;;;;6.90;1.20;;;;;;;;;;6122562;29;20428;-75
2021/06/24 18:28:00;;;;;;;5.18;1.50;;;;;;;;;;6116205;29;20169;-71
2021/06/24 18:31:03;;;;;;;4.15;1.50;;;;;;;;;;6115282;29;20415;-70
2021/06/24 18:34:04;;;;;;;3.20;1.50;;;;;;;;;;6121579;29;20112;-70
2021/06/24 18:37:06;;;;;;;5.88;2.92;;;;;;;;;;6118462;29;20079;-69
2021/06/24 18:40:10;;;;;;;6.45;1.50;;;;;;;;;;6117969;29;20155;-72
2021/06/24 18:43:12;;;;;;;5.10;2.03;;;;;;;;;;6112818;29;21392;-70
2021/06/24 18:46:15;;;;;;;3.45;1.83;;;;;;;;;;6112955;29;20155;-71
2021/06/24 18:49:16;;;;;;;;;;;;;;;;;;6114474;29;20072;-71
2021/06/24 18:52:18;;;;;;;3.20;2.65;;;;;;;;;;6108830;29;19930;-71
2021/06/24 18:55:20;;;;;;;2.67;1.50;;;;;;;;;;6107600;29;20059;-71
2021/06/24 18:58:22;;;;;;;3.47;1.30;;;;;;;;;;6113062;29;20089;-71
2021/06/24 19:01:25;;;;;;;3.47;1.70;;;;;;;;;;6111185;29;20052;-74
2021/06/24 19:04:27;;;;;;;4.47;1.50;;;;;;;;;;6105812;29;20103;-73
2021/06/24 19:07:29;;;;;;;2.75;1.35;;;;;;;;;;6117074;29;20116;-75
2021/06/24 19:10:31;;;;;;;3.45;1.48;;;;;;;;;;6103527;29;20140;-72
2021/06/24 19:13:32;;;;;;;4.20;1.70;;;;;;;;;;6113216;29;20051;-73
2021/06/24 19:16:35;;;;;;;2.53;1.38;;;;;;;;;;6110197;29;20056;-75
2021/06/24 19:19:37;;;;;;;;;;;;;;;;;;6111945;29;20056;-73
2021/06/24 19:22:39;;;;;;;5.43;1.50;;;;;;;;;;6107014;29;19959;-75
2021/06/24 19:25:41;;;;;;;5.13;1.70;;;;;;;;;;6106780;29;20051;-76
2021/06/24 19:28:43;;;;;;;3.95;1.70;;;;;;;;;;6113433;29;20063;-72
2021/06/24 19:31:46;;;;;;;5.93;1.58;;;;;;;;;;6108523;29;20051;-73
2021/06/24 19:34:51;;;;;;;6.05;1.70;;;;;;;;;;6124137;29;20477;-73
2021/06/24 19:37:57;;;;;;;6.47;2.13;;;;;;;;;;6112901;29;20072;-72
2021/06/24 19:40:58;;;;;;;10.75;2.00;;;;;;;;;;6115134;29;20051;-73
2021/06/24 19:44:01;;;;;;;4.82;2.10;;;;;;;;;;6119962;29;20056;-73
2021/06/24 19:47:05;;;;;;;6.03;2.67;;;;;;;;;;6109349;29;20056;-73
2021/06/24 19:50:08;;;;;;;8.65;2.88;;;;;;;;;;6107984;29;20138;-78
2021/06/24 19:53:09;;;;;;;3.83;2.47;;;;;;;;;;6115695;29;20095;-74
2021/06/24 19:56:11;;;;;;;4.88;2.65;;;;;;;;;;6116745;29;20048;-73
2021/06/24 19:59:13;;;;;;;5.75;2.30;;;;;;;;;;6118764;29;20060;-72
2021/06/24 20:02:18;;;;;;;3.08;1.95;;;;;;;;;;6124596;29;20103;-72
2021/06/24 20:05:21;;;;;;;4.00;2.45;;;;;;;;;;6115972;29;20084;-72
2021/06/24 20:08:23;;;;;;;5.18;1.88;;;;;;;;;;6116072;29;20089;-72
2021/06/24 20:11:24;;;;;;;2.83;1.48;;;;;;;;;;6116739;29;20060;-73
2021/06/24 20:14:26;;;;;;;3.53;1.65;;;;;;;;;;6108500;29;20047;-72
2021/06/24 20:17:29;;;;;;;6.40;2.08;;;;;;;;;;6114287;29;20130;-72
2021/06/24 20:20:31;;;;;;;3.05;1.88;;;;;;;;;;6108597;29;20055;-73
2021/06/24 20:23:34;;;;;;;6.93;1.65;;;;;;;;;;6112873;29;20072;-72
2021/06/24 20:26:38;;;;;;;3.30;1.83;;;;;;;;;;6102829;29;20060;-74
2021/06/24 20:29:44;;;;;;;4.32;1.60;;;;;;;;;;6086737;29;20060;-73
2021/06/24 20:32:47;;;;;;;4.47;2.00;;;;;;;;;;6120302;29;20135;-78
2021/06/24 20:35:52;;;;;;;5.95;1.67;;;;;;;;;;6095041;29;20052;-72
2021/06/24 20:38:54;;;;;;;1.92;1.58;;;;;;;;;;6103096;29;20056;-73
2021/06/24 20:41:55;;;;;;;2.78;1.65;;;;;;;;;;6113935;29;20055;-73
2021/06/24 20:44:57;;;;;;;4.00;1.58;;;;;;;;;;6112797;29;20056;-73